createdAt,value
2019-04-21T00:02:30.754Z,102766.97
2019-04-21T00:05:22.939Z,102760.94
2019-04-21T00:07:50.501Z,102764.11
2019-04-21T00:10:23.519Z,102756.39
2019-04-21T00:12:45.933Z,102754.59
2019-04-21T00:15:18.128Z,102749.34
2019-04-21T00:17:43.569Z,102749.34
2019-04-21T00:20:23.857Z,102744.69
2019-04-21T00:22:58.768Z,102739.17
2019-04-21T00:25:32.197Z,102739.17
2019-04-21T00:28:16.753Z,102733.97
2019-04-21T00:30:44.243Z,102733.89
2019-04-21T00:33:03.104Z,102729.46
2019-04-21T00:35:27.457Z,102732.31
2019-04-21T00:38:17.109Z,102727.40
2019-04-21T00:40:47.928Z,102724.35
2019-04-21T00:43:15.184Z,102730.50
2019-04-21T00:45:43.476Z,102725.89
2019-04-21T00:48:23.291Z,102715.81
2019-04-21T00:51:14.990Z,102717.91
2019-04-21T00:53:35.712Z,102714.98
2019-04-21T00:56:11.263Z,102712.02
2019-04-21T00:58:53.678Z,102710.97
2019-04-21T01:01:09.014Z,102716.72
2019-04-21T01:03:43.456Z,102705.91
2019-04-21T01:06:14.258Z,102704.12
2019-04-21T01:08:41.435Z,102702.47
2019-04-21T01:11:15.604Z,102695.91
2019-04-21T01:13:45.507Z,102695.81
2019-04-21T01:16:20.830Z,102691.47
2019-04-21T01:18:43.664Z,102687.67
2019-04-21T01:20:56.310Z,102683.13
2019-04-21T01:23:27.448Z,102685.59
2019-04-21T01:26:13.694Z,102676.83
2019-04-21T01:28:46.616Z,102685.33
2019-04-21T01:31:17.314Z,102675.58
2019-04-21T01:33:50.747Z,102671.03
2019-04-21T01:36:18.099Z,102670.42
2019-04-21T01:38:55.112Z,102670.42
2019-04-21T01:41:35.194Z,102659.25
2019-04-21T01:43:57.277Z,102664.86
2019-04-21T01:46:27.256Z,102657.45
2019-04-21T01:48:57.045Z,102658.19
2019-04-21T01:51:32.152Z,102654.05
2019-04-21T01:54:11.240Z,102654.05
2019-04-21T01:57:01.615Z,102650.25
2019-04-21T01:59:32.004Z,102650.25
2019-04-21T02:02:15.973Z,102652.02
2019-04-21T02:04:50.067Z,102647.27
2019-04-21T02:07:13.094Z,102650.66
2019-04-21T02:09:42.065Z,102640.84
2019-04-21T02:12:20.468Z,102645.02
2019-04-21T02:15:04.850Z,102636.45
2019-04-21T02:17:20.396Z,102636.45
2019-04-21T02:19:46.345Z,102639.16
2019-04-21T02:22:28.751Z,102646.94
2019-04-21T02:24:56.743Z,102636.05
2019-04-21T02:27:26.184Z,102627.00
2019-04-21T02:30:00.174Z,102627.00
2019-04-21T02:37:46.787Z,102625.64
2019-04-21T02:40:11.231Z,102625.64
2019-04-21T02:42:46.486Z,102623.27
2019-04-21T02:45:17.186Z,102623.27
2019-04-21T02:55:25.607Z,102617.54
2019-04-21T02:57:59.405Z,102618.61
2019-04-21T03:00:30.350Z,102611.03
2019-04-21T03:03:34.364Z,102609.44
2019-04-21T03:06:32.981Z,102605.30
2019-04-21T03:09:05.913Z,102607.47
2019-04-21T03:11:25.125Z,102602.44
2019-04-21T03:14:13.659Z,102605.50
2019-04-21T03:16:28.554Z,102604.08
2019-04-21T03:21:38.784Z,102593.02
2019-04-21T03:26:48.715Z,102592.08
2019-04-21T03:29:12.128Z,102584.47
2019-04-21T03:32:08.853Z,102580.99
2019-04-21T03:39:11.866Z,102571.86
2019-04-21T03:41:48.073Z,102575.91
2019-04-21T03:44:26.682Z,102575.91
2019-04-21T03:46:51.870Z,102577.46
2019-04-21T03:49:40.733Z,102577.46
2019-04-21T03:51:57.601Z,102572.56
2019-04-21T03:54:25.218Z,102574.35
2019-04-21T03:56:59.218Z,102571.61
2019-04-21T03:59:30.049Z,102563.83
2019-04-21T04:05:15.395Z,102570.78
2019-04-21T04:08:22.549Z,102570.78
2019-04-21T04:10:34.734Z,102570.97
2019-04-21T04:13:05.066Z,102569.37
2019-04-21T04:15:42.964Z,102571.14
2019-04-21T04:18:07.656Z,102563.55
2019-04-21T04:20:35.578Z,102565.44
2019-04-21T04:23:07.983Z,102569.84
2019-04-21T04:25:43.328Z,102560.56
2019-04-21T04:28:34.980Z,102561.04
2019-04-21T04:30:45.403Z,102561.04
2019-04-21T04:33:20.364Z,102554.61
2019-04-21T04:36:01.519Z,102554.61
2019-04-21T04:38:22.281Z,102561.98
2019-04-21T04:40:57.530Z,102567.69
2019-04-21T04:43:24.925Z,102553.73
2019-04-21T04:48:29.042Z,102543.62
2019-04-21T04:51:14.831Z,102543.62
2019-04-21T04:56:08.113Z,102547.80
2019-04-21T04:59:10.678Z,102547.80
2019-04-21T05:01:14.632Z,102546.30
2019-04-21T05:09:13.307Z,102528.65
2019-04-21T05:11:46.132Z,102536.11
2019-04-21T05:14:19.503Z,102526.56
2019-04-21T05:23:55.377Z,102524.78
2019-04-21T05:26:43.240Z,102522.83
2019-04-21T05:29:15.886Z,102522.24
2019-04-21T05:32:21.908Z,102518.89
2019-04-21T05:35:06.170Z,102519.20
2019-04-21T05:37:53.801Z,102508.16
2019-04-21T05:40:24.835Z,102511.50
2019-04-21T05:43:03.466Z,102512.24
2019-04-21T05:45:40.811Z,102515.16
2019-04-21T05:50:46.132Z,102504.09
2019-04-21T05:53:25.345Z,102515.77
2019-04-21T05:58:25.914Z,102507.02
2019-04-21T06:03:32.438Z,102511.39
2019-04-21T06:06:08.555Z,102514.20
2019-04-21T06:08:34.270Z,102505.44
2019-04-21T06:11:28.146Z,102513.66
2019-04-21T06:14:01.541Z,102507.70
2019-04-21T06:16:31.873Z,102505.45
2019-04-21T06:18:58.673Z,102502.05
2019-04-21T06:21:28.769Z,102510.30
2019-04-21T06:23:57.578Z,102497.78
2019-04-21T06:26:52.334Z,102494.92
2019-04-21T06:28:59.640Z,102497.68
2019-04-21T06:34:06.772Z,102487.08
2019-04-21T06:36:47.504Z,102479.78
2019-04-21T06:41:51.629Z,102474.98
2019-04-21T06:44:25.002Z,102474.98
2019-04-21T06:46:53.221Z,102479.59
2019-04-21T06:49:19.473Z,102470.09
2019-04-21T06:51:59.984Z,102477.34
2019-04-21T06:56:56.730Z,102467.06
2019-04-21T06:59:31.898Z,102479.09
2019-04-21T07:02:28.698Z,102469.09
2019-04-21T07:04:39.603Z,102469.09
2019-04-21T07:07:05.310Z,102473.63
2019-04-21T07:09:36.421Z,102472.95
2019-04-21T07:12:05.830Z,102478.48
2019-04-21T07:14:42.124Z,102472.50
2019-04-21T07:17:19.915Z,102475.72
2019-04-21T07:19:48.067Z,102477.16
2019-04-21T07:22:19.449Z,102469.25
2019-04-21T07:24:49.271Z,102470.16
2019-04-21T07:27:22.304Z,102472.86
2019-04-21T07:29:58.268Z,102472.44
2019-04-21T07:32:29.119Z,102471.21
2019-04-21T07:35:05.248Z,102474.94
2019-04-21T07:37:30.517Z,102467.57
2019-04-21T07:39:58.683Z,102467.20
2019-04-21T07:42:28.239Z,102458.39
2019-04-21T07:44:57.977Z,102452.83
2019-04-21T07:47:44.812Z,102454.27
2019-04-21T07:50:27.459Z,102450.77
2019-04-21T07:53:17.067Z,102454.38
2019-04-21T07:58:13.253Z,102451.84
2019-04-21T08:03:13.925Z,102444.89
2019-04-21T08:05:47.154Z,102444.63
2019-04-21T08:08:15.981Z,102446.05
2019-04-21T08:10:50.732Z,102439.02
2019-04-21T08:13:31.609Z,102442.63
2019-04-21T08:15:51.046Z,102443.22
2019-04-21T08:18:28.673Z,102436.66
2019-04-21T08:20:53.380Z,102422.69
2019-04-21T08:23:34.098Z,102418.97
2019-04-21T08:26:06.092Z,102415.88
2019-04-21T08:28:33.819Z,102404.56
2019-04-21T08:31:10.083Z,102406.28
2019-04-21T08:33:46.321Z,102410.88
2019-04-21T08:36:19.078Z,102404.09
2019-04-21T08:38:45.876Z,102401.91
2019-04-21T08:41:12.362Z,102406.78
2019-04-21T08:43:45.598Z,102397.92
2019-04-21T08:46:20.325Z,102412.08
2019-04-21T08:48:49.649Z,102405.87
2019-04-21T08:51:27.671Z,102414.70
2019-04-21T08:53:56.765Z,102411.20
2019-04-21T08:56:52.890Z,102416.50
2019-04-21T08:59:51.436Z,102411.62
2019-04-21T09:02:35.251Z,102404.98
2019-04-21T09:05:04.694Z,102400.57
2019-04-21T09:10:04.230Z,102411.05
2019-04-21T09:12:39.272Z,102404.08
2019-04-21T09:15:11.448Z,102396.98
2019-04-21T09:17:32.796Z,102408.56
2019-04-21T09:20:17.263Z,102398.81
2019-04-21T09:22:41.319Z,102401.86
2019-04-21T09:25:19.994Z,102402.75
2019-04-21T09:27:42.474Z,102397.44
2019-04-21T09:30:03.479Z,102392.61
2019-04-21T09:32:34.824Z,102394.35
2019-04-21T09:35:10.269Z,102389.00
2019-04-21T09:37:44.431Z,102387.25
2019-04-21T09:40:06.922Z,102383.77
2019-04-21T09:42:50.371Z,102385.52
2019-04-21T09:45:15.648Z,102378.41
2019-04-21T09:47:55.722Z,102380.10
2019-04-21T09:50:17.662Z,102377.55
2019-04-21T09:52:54.332Z,102382.00
2019-04-21T09:55:22.795Z,102375.77
2019-04-21T09:57:55.323Z,102370.86
2019-04-21T10:00:25.292Z,102369.11
2019-04-21T10:03:00.846Z,102368.23
2019-04-21T10:05:31.593Z,102374.88
2019-04-21T10:08:01.324Z,102372.67
2019-04-21T10:10:31.946Z,102373.97
2019-04-21T10:13:02.879Z,102366.00
2019-04-21T10:15:33.260Z,102377.45
2019-04-21T10:18:15.210Z,102083.18
2019-04-21T10:20:44.911Z,102362.48
2019-04-21T10:23:15.542Z,102364.30
2019-04-21T10:25:46.364Z,102361.63
2019-04-21T10:28:17.167Z,102362.52
2019-04-21T10:30:50.963Z,102364.27
2019-04-21T10:33:21.939Z,102365.56
2019-04-21T10:35:52.992Z,102360.72
2019-04-21T10:38:33.248Z,102359.34
2019-04-21T10:40:54.347Z,102350.10
2019-04-21T10:43:29.294Z,102351.05
2019-04-21T10:45:59.025Z,102347.92
2019-04-21T10:48:31.227Z,102350.05
2019-04-21T10:51:01.127Z,102348.27
2019-04-21T10:53:34.546Z,102357.15
2019-04-21T10:56:15.723Z,102342.50
2019-04-21T10:58:38.325Z,102340.69
2019-04-21T11:01:27.330Z,102349.08
2019-04-21T11:04:17.196Z,102345.61
2019-04-21T11:06:42.466Z,102341.20
2019-04-21T11:09:12.187Z,102336.81
2019-04-21T11:11:44.991Z,102335.91
2019-04-21T11:14:13.857Z,102330.66
2019-04-21T11:16:45.835Z,102330.64
2019-04-21T11:19:15.944Z,102335.88
2019-04-21T11:21:47.057Z,102338.98
2019-04-21T11:24:18.105Z,102335.03
2019-04-21T11:26:49.584Z,102325.70
2019-04-21T11:29:21.131Z,102334.16
2019-04-21T11:31:51.338Z,102328.84
2019-04-21T11:34:21.181Z,102327.06
2019-04-21T11:36:56.913Z,102322.20
2019-04-21T11:39:39.556Z,102321.78
2019-04-21T11:42:05.898Z,102327.55
2019-04-21T11:44:37.227Z,102320.88
2019-04-21T11:47:10.243Z,102324.86
2019-04-21T11:49:43.072Z,102322.70
2019-04-21T11:52:13.678Z,102318.23
2019-04-21T11:54:44.652Z,102318.70
2019-04-21T11:57:22.033Z,102315.59
2019-04-21T11:59:47.924Z,102312.00
2019-04-21T12:02:17.538Z,102314.67
2019-04-21T12:04:49.531Z,102315.56
2019-04-21T12:07:19.718Z,102309.33
2019-04-21T12:09:49.195Z,102309.78
2019-04-21T12:12:21.338Z,102305.77
2019-04-21T12:14:52.205Z,102308.41
2019-04-21T12:17:23.730Z,102309.28
2019-04-21T12:19:54.744Z,102302.24
2019-04-21T12:22:28.945Z,102294.25
2019-04-21T12:24:57.495Z,102299.95
2019-04-21T12:27:28.092Z,102295.98
2019-04-21T12:29:58.054Z,102297.37
2019-04-21T12:32:46.303Z,102297.38
2019-04-21T12:35:17.531Z,102286.18
2019-04-21T12:37:47.208Z,102283.48
2019-04-21T12:40:17.096Z,102276.52
2019-04-21T12:42:48.608Z,102284.41
2019-04-21T12:45:19.347Z,102276.38
2019-04-21T12:47:52.008Z,102272.06
2019-04-21T12:50:21.726Z,102268.45
2019-04-21T12:52:51.652Z,102259.15
2019-04-21T12:55:26.148Z,102256.87
2019-04-21T12:57:55.135Z,102251.98
2019-04-21T13:00:25.197Z,102248.59
2019-04-21T13:02:56.063Z,102245.68
2019-04-21T13:05:27.497Z,102242.16
2019-04-21T13:07:57.941Z,102236.06
2019-04-21T13:10:28.595Z,102235.64
2019-04-21T13:12:59.745Z,102233.80
2019-04-21T13:15:31.304Z,102233.63
2019-04-21T13:18:05.998Z,102230.09
2019-04-21T13:20:35.936Z,102226.56
2019-04-21T13:23:05.930Z,102226.95
2019-04-21T13:25:37.800Z,102227.22
2019-04-21T13:28:07.673Z,102224.91
2019-04-21T13:30:42.561Z,102227.05
2019-04-21T13:33:13.314Z,102216.83
2019-04-21T13:35:44.875Z,102215.72
2019-04-21T13:38:24.524Z,102218.58
2019-04-21T13:41:36.430Z,102216.69
2019-04-21T13:44:23.925Z,102214.09
2019-04-21T13:46:54.607Z,102208.77
2019-04-21T13:49:25.411Z,102211.33
2019-04-21T13:51:56.139Z,102207.31
2019-04-21T13:54:27.454Z,102204.39
2019-04-21T13:57:08.237Z,102207.92
2019-04-21T13:59:38.423Z,102202.83
2019-04-21T14:02:11.158Z,102193.43
2019-04-21T14:04:41.173Z,102195.73
2019-04-21T14:07:12.240Z,102198.17
2019-04-21T14:09:52.703Z,102198.91
2019-04-21T14:12:21.322Z,102200.06
2019-04-21T14:14:52.441Z,102190.84
2019-04-21T14:17:24.661Z,102192.28
2019-04-21T14:19:55.242Z,102189.02
2019-04-21T14:22:26.444Z,102191.45
2019-04-21T14:24:56.422Z,102193.09
2019-04-21T14:27:26.248Z,102196.72
2019-04-21T14:29:55.984Z,102190.63
2019-04-21T14:32:26.531Z,102195.03
2019-04-21T14:34:56.747Z,102187.80
2019-04-21T14:37:26.627Z,102181.64
2019-04-21T14:40:03.975Z,102180.67
2019-04-21T14:42:27.572Z,102175.90
2019-04-21T14:44:58.830Z,102175.90
2019-04-21T14:47:38.043Z,102172.02
2019-04-21T14:50:28.250Z,102171.23
2019-04-21T14:53:16.071Z,102170.27
2019-04-21T14:55:46.688Z,102164.00
2019-04-21T14:58:17.210Z,102166.19
2019-04-21T15:00:57.767Z,102163.41
2019-04-21T15:03:32.084Z,102169.69
2019-04-21T15:06:03.315Z,102174.96
2019-04-21T15:08:33.456Z,102165.09
2019-04-21T15:11:03.253Z,102155.21
2019-04-21T15:13:32.935Z,102155.10
2019-04-21T15:16:08.896Z,102155.06
2019-04-21T15:18:40.991Z,102154.47
2019-04-21T15:21:11.196Z,102151.98
2019-04-21T15:23:42.133Z,102146.64
2019-04-21T15:26:14.342Z,102151.02
2019-04-21T15:28:46.779Z,102145.73
2019-04-21T15:31:25.698Z,102146.56
2019-04-21T15:33:49.490Z,102144.84
2019-04-21T15:36:20.862Z,102141.30
2019-04-21T15:38:51.981Z,102134.03
2019-04-21T15:41:22.646Z,102140.22
2019-04-21T15:43:54.373Z,102137.08
2019-04-21T15:46:24.880Z,102135.62
2019-04-21T15:48:55.126Z,102131.26
2019-04-21T15:51:28.091Z,102133.98
2019-04-21T15:53:58.134Z,102130.51
2019-04-21T15:56:38.614Z,102129.16
2019-04-21T15:59:26.411Z,102132.80
2019-04-21T16:02:24.642Z,102133.38
2019-04-21T16:04:54.873Z,102125.05
2019-04-21T16:07:26.755Z,102131.58
2019-04-21T16:09:57.619Z,102124.45
2019-04-21T16:12:29.591Z,102124.38
2019-04-21T16:15:00.697Z,102124.36
2019-04-21T16:17:30.463Z,102122.27
2019-04-21T16:20:02.043Z,102115.63
2019-04-21T16:22:32.658Z,102118.38
2019-04-21T16:25:03.324Z,102110.89
2019-04-21T16:27:35.184Z,102110.05
2019-04-21T16:30:07.816Z,102109.66
2019-04-21T16:32:38.391Z,102104.31
2019-04-21T16:35:11.106Z,102107.86
2019-04-21T16:37:41.442Z,102108.31
2019-04-21T16:40:11.771Z,102110.98
2019-04-21T16:42:42.516Z,102107.45
2019-04-21T16:45:14.770Z,102106.69
2019-04-21T16:47:49.059Z,102113.78
2019-04-21T16:50:19.490Z,102109.92
2019-04-21T16:53:02.164Z,102111.27
2019-04-21T16:55:39.396Z,102108.64
2019-04-21T16:58:34.581Z,102104.67
2019-04-21T17:01:13.972Z,102107.75
2019-04-21T17:03:40.358Z,102098.86
2019-04-21T17:06:13.225Z,102102.44
2019-04-21T17:08:47.037Z,102098.94
2019-04-21T17:11:23.787Z,102105.08
2019-04-21T17:13:56.608Z,102104.20
2019-04-21T17:16:50.870Z,102100.25
2019-04-21T17:19:13.198Z,102102.53
2019-04-21T17:21:34.355Z,102097.64
2019-04-21T17:24:04.623Z,102106.52
2019-04-21T17:26:39.391Z,102101.66
2019-04-21T17:29:07.887Z,102099.92
2019-04-21T17:31:39.244Z,102101.66
2019-04-21T17:34:16.433Z,102103.86
2019-04-21T17:36:43.150Z,102105.19
2019-04-21T17:39:13.230Z,102106.06
2019-04-21T17:41:59.173Z,102101.66
2019-04-21T17:44:15.085Z,102108.30
2019-04-21T17:46:51.885Z,102105.19
2019-04-21T17:49:17.009Z,102100.76
2019-04-21T17:52:19.232Z,102106.06
2019-04-21T17:54:51.260Z,102106.97
2019-04-21T17:57:37.956Z,102106.10
2019-04-21T18:00:14.206Z,102101.66
2019-04-21T18:02:47.926Z,102106.97
2019-04-21T18:05:16.678Z,102105.19
2019-04-21T18:07:44.959Z,102103.90
2019-04-21T18:10:11.430Z,102105.22
2019-04-21T18:12:39.761Z,102103.89
2019-04-21T18:15:17.590Z,102099.92
2019-04-21T18:17:32.162Z,102103.48
2019-04-21T18:20:01.990Z,102103.47
2019-04-21T18:22:51.321Z,102099.52
2019-04-21T18:25:34.976Z,102102.16
2019-04-21T18:27:54.547Z,102102.16
2019-04-21T18:30:42.469Z,102098.63
2019-04-21T18:33:21.288Z,102101.28
2019-04-21T18:36:02.992Z,102103.06
2019-04-21T18:39:18.132Z,102107.90
2019-04-21T18:41:34.703Z,102104.36
2019-04-21T18:44:32.262Z,102100.84
2019-04-21T18:47:09.061Z,102103.50
2019-04-21T18:49:25.636Z,102101.30
2019-04-21T18:52:17.104Z,102111.45
2019-04-21T18:54:57.588Z,102118.52
2019-04-21T18:57:19.540Z,102116.71
2019-04-21T18:59:44.010Z,102118.03
2019-04-21T19:02:17.491Z,102116.70
2019-04-21T19:04:44.948Z,102119.33
2019-04-21T19:07:30.540Z,102121.06
2019-04-21T19:13:07.935Z,102121.02
2019-04-21T19:15:07.701Z,102120.11
2019-04-21T19:20:15.384Z,102121.39
2019-04-21T19:22:41.700Z,102117.84
2019-04-21T19:25:16.437Z,102117.81
2019-04-21T19:27:53.304Z,102123.53
2019-04-21T19:30:30.145Z,102127.91
2019-04-21T19:32:51.377Z,102122.58
2019-04-21T19:35:07.115Z,102116.77
2019-04-21T19:37:45.212Z,102127.77
2019-04-21T19:40:29.058Z,102127.72
2019-04-21T19:42:50.926Z,102123.24
2019-04-21T19:45:28.090Z,102130.29
2019-04-21T19:48:08.144Z,102122.73
2019-04-21T19:50:43.853Z,102124.00
2019-04-21T19:53:00.510Z,102124.00
2019-04-21T19:55:24.386Z,102128.36
2019-04-21T19:57:54.777Z,102128.70
2019-04-21T20:00:26.463Z,102130.35
2019-04-21T20:02:56.712Z,102135.20
2019-04-21T20:05:36.151Z,102126.78
2019-04-21T20:08:17.383Z,102126.28
2019-04-21T20:10:48.377Z,102130.75
2019-04-21T20:13:33.416Z,102134.38
2019-04-21T20:15:52.406Z,102134.08
2019-04-21T20:18:18.781Z,102135.40
2019-04-21T20:20:37.282Z,102131.86
2019-04-21T20:23:19.281Z,102126.20
2019-04-21T20:25:52.555Z,102127.50
2019-04-21T20:28:30.992Z,102126.48
2019-04-21T20:31:09.696Z,102133.09
2019-04-21T20:36:16.956Z,102124.61
2019-04-21T20:38:35.858Z,102122.96
2019-04-21T20:41:02.214Z,102119.69
2019-04-21T20:43:45.625Z,102126.16
2019-04-21T20:46:12.532Z,102126.91
2019-04-21T20:48:45.255Z,102119.76
2019-04-21T20:51:18.079Z,102128.84
2019-04-21T20:53:50.906Z,102124.27
2019-04-21T20:56:15.597Z,102115.41
2019-04-21T20:58:55.439Z,102114.90
2019-04-21T21:03:56.467Z,102112.31
2019-04-21T21:06:26.171Z,102115.38
2019-04-21T21:09:01.520Z,102121.59
2019-04-21T21:11:35.318Z,102120.84
2019-04-21T21:14:09.992Z,102119.47
2019-04-21T21:16:45.006Z,102122.34
2019-04-21T21:19:18.236Z,102122.97
2019-04-21T21:21:34.107Z,102121.90
2019-04-21T21:24:08.621Z,102124.53
2019-04-21T21:26:51.781Z,102125.02
2019-04-21T21:29:22.815Z,102125.02
2019-04-21T21:32:04.343Z,102120.22
2019-04-21T21:34:28.084Z,102114.90
2019-04-21T21:36:57.608Z,102116.53
2019-04-21T21:39:35.580Z,102116.45
2019-04-21T21:41:49.772Z,102125.13
2019-04-21T21:44:22.771Z,102108.26
2019-04-21T21:47:04.283Z,102115.14
2019-04-21T21:49:33.634Z,102116.45
2019-04-21T21:52:06.143Z,102120.47
2019-04-21T21:54:31.751Z,102112.20
2019-04-21T21:57:04.869Z,102115.86
2019-04-21T21:59:38.176Z,102112.97
2019-04-21T22:02:09.376Z,102113.15
2019-04-21T22:04:44.486Z,102114.47
2019-04-21T22:07:15.144Z,102116.73
2019-04-21T22:09:41.990Z,102115.78
2019-04-21T22:12:12.475Z,102111.78
2019-04-21T22:14:47.942Z,102111.31
2019-04-21T22:17:29.486Z,102110.88
2019-04-21T22:20:12.300Z,102116.04
2019-04-21T22:22:31.212Z,102116.92
2019-04-21T22:24:59.120Z,102113.82
2019-04-21T22:27:23.218Z,102115.86
2019-04-21T22:29:58.077Z,102114.07
2019-04-21T22:32:29.064Z,102114.43
2019-04-21T22:35:02.091Z,102112.98
2019-04-21T22:37:41.575Z,102109.03
2019-04-21T22:40:13.695Z,102107.28
2019-04-21T22:42:44.452Z,102104.30
2019-04-21T22:45:05.046Z,102100.30
2019-04-21T22:47:39.228Z,102112.07
2019-04-21T22:50:06.792Z,102105.17
2019-04-21T22:52:37.485Z,102105.17
2019-04-21T22:55:16.736Z,102125.97
2019-04-21T22:57:48.023Z,102105.80
2019-04-21T23:00:16.715Z,102112.11
2019-04-21T23:02:46.908Z,102109.25
2019-04-21T23:05:24.112Z,102108.50
2019-04-21T23:07:54.832Z,102109.00
2019-04-21T23:10:23.354Z,102104.62
2019-04-21T23:12:59.599Z,102113.88
2019-04-21T23:15:34.505Z,102104.61
2019-04-21T23:18:11.929Z,102096.03
2019-04-21T23:20:47.670Z,102101.51
2019-04-21T23:23:26.432Z,102098.52
2019-04-21T23:25:53.069Z,102099.16
2019-04-21T23:28:29.704Z,102099.16
2019-04-21T23:31:01.080Z,102101.35
2019-04-21T23:33:16.435Z,102100.87
2019-04-21T23:35:49.252Z,102098.16
2019-04-21T23:38:27.901Z,102097.19
2019-04-21T23:40:55.826Z,102097.19
2019-04-21T23:43:26.396Z,102102.20
2019-04-21T23:45:53.991Z,102102.20
2019-04-21T23:48:36.442Z,102096.38
2019-04-21T23:51:10.925Z,102094.58
2019-04-21T23:53:27.067Z,102102.54
2019-04-21T23:55:57.144Z,102107.57
2019-04-21T23:58:30.891Z,102113.54
